Coral Leaf — PHNI — position and weather

sailwx.info

Track history (hours):
 
Tides and Currents Weather Stations Pressure Air Temp Water Temp Dewpoint Dewpoint Depression Visibility Wind Speed Wind Dir Waves Ship Positions

Coral Leaf

Last reported at 2014-Sep-22 13:34 UTC. Time now 2014-Sep-22 14:18 UTC.
Position N 51°26' E 003°59'.

Length 108 m; draft 6.6 m.

Type: Ship (hazmat cat D). MMSI: 244036000.

Date/timePositionNaut miles runAvg speedWind from/ knotsBaromVisibWave heightAir tempDewpointWater temp
2014-Sep-22 13:34N 51°26' E 003°59'1110.9
2014-Sep-22 12:34N 51°24' E 003°42'1312.6
2014-Sep-22 11:33N 51°32' E 003°25'1111.4
2014-Sep-22 10:33N 51°41' E 003°15'5913.4
2014-Sep-22 06:12N 52°27' E 002°16'3014.6
2014-Sep-22 04:07N 52°55' E 001°56'814.7
2014-Sep-22 03:34N 52°60' E 001°44'1414.1
2014-Sep-22 02:33N 53°08' E 001°25'4213.7
2014-Sep-21 23:28N 53°43' E 000°45'1313.3
2014-Sep-21 22:28N 53°53' E 000°30'1213.5
2014-Sep-21 21:33N 54°02' E 000°16'1313.3
2014-Sep-21 20:33N 54°12' E 000°01'1313.5
2014-Sep-21 19:33N 54°21' W 000°15'1413.8
2014-Sep-21 18:33N 54°32' W 000°31'1913.9
2014-Sep-21 17:12N 54°39' W 001°01'5 0.2
2014-Sep-20 19:33N 54°38' W 001°09'10 9.0
2014-Sep-20 18:28N 54°41' W 000°53'1314.3
2014-Sep-20 17:34N 54°40' W 000°31'1413.7
2014-Sep-20 16:34N 54°39' W 000°07'1313.4
2014-Sep-20 15:34N 54°39' E 000°16'1313.2
2014-Sep-20 14:33N 54°38' E 000°39'14314.3
2014-Sep-20 04:31N 54°08' E 004°40'1414.4
2014-Sep-20 03:33N 54°05' E 005°03'1514.7
2014-Sep-20 02:33N 54°07' E 005°27'1615.2
2014-Sep-20 01:31N 54°10' E 005°54'1515.8
2014-Sep-20 00:32N 54°12' E 006°20'2316.1
2014-Sep-19 23:06N 54°13' E 006°60'916.1
2014-Sep-19 22:33N 54°13' E 007°15'1313.4
2014-Sep-19 21:33N 54°06' E 007°34'1514.9
2014-Sep-19 20:33N 53°53' E 007°47'1312.7
2014-Sep-19 19:33N 53°45' E 008°03'6 5.8
2014-Sep-19 18:28N 53°39' E 008°06'0 0.0
2014-Sep-19 17:31N 53°39' E 008°06'0 0.0
2014-Sep-19 16:25N 53°39' E 008°06'0 0.0
2014-Sep-19 15:31N 53°39' E 008°06'0 0.0
2014-Sep-19 14:31N 53°39' E 008°06'0 0.0
2014-Sep-19 13:16N 53°39' E 008°06'0 0.0
2014-Sep-19 12:31N 53°39' E 008°06'0 0.0
2014-Sep-19 11:31N 53°39' E 008°06'0 0.0
2014-Sep-19 10:33N 53°39' E 008°06'0 0.0
2014-Sep-19 09:30N 53°39' E 008°06'0 0.0
2014-Sep-19 08:33N 53°39' E 008°06'0 0.0
2014-Sep-19 07:33N 53°39' E 008°06'0 0.0
2014-Sep-19 06:33N 53°39' E 008°06'0 0.0
2014-Sep-19 05:33N 53°39' E 008°06'0 0.0
2014-Sep-19 04:33N 53°39' E 008°06'0 0.0
2014-Sep-19 03:33N 53°39' E 008°06'0 0.0
2014-Sep-19 02:30N 53°39' E 008°06'0 0.0
2014-Sep-19 01:33N 53°39' E 008°06'0 0.0
2014-Sep-19 00:33N 53°39' E 008°06'0 0.0
2014-Sep-18 23:33N 53°39' E 008°06'0 0.0
2014-Sep-18 22:30N 53°39' E 008°06'0 0.0
2014-Sep-18 21:32N 53°39' E 008°06'1 0.6
2014-Sep-18 20:33N 53°39' E 008°06'1010.1
2014-Sep-18 19:33N 53°48' E 007°59'1612.2
2014-Sep-18 18:12N 53°58' E 007°37'914.6
2014-Sep-18 17:33N 54°07' E 007°30'4914.7
2014-Sep-18 14:15N 54°07' E 006°06'1014.7
2014-Sep-18 13:32N 54°06' E 005°49'1414.5
2014-Sep-18 12:33N 54°04' E 005°25'1414.3
2014-Sep-18 11:33N 54°02' E 005°01'16513.4
2014-Sep-17 23:11N 54°38' E 000°24'813.6
2014-Sep-17 22:33N 54°38' E 000°10'1413.6
2014-Sep-17 21:33N 54°38' W 000°14'1413.5
2014-Sep-17 20:33N 54°40' W 000°37'1513.5
2014-Sep-17 19:26N 54°42' W 001°03'8 0.8
2014-Sep-17 09:19N 54°36' W 001°11'0 0.0
2014-Sep-17 08:31N 54°36' W 001°11'0 0.0
2014-Sep-17 07:31N 54°36' W 001°11'1 0.1
2014-Sep-16 22:30N 54°37' W 001°09'9 9.8
2014-Sep-16 21:33N 54°42' W 000°56'1514.0
2014-Sep-16 20:30N 54°49' W 000°33'1313.4
2014-Sep-16 19:33N 54°54' W 000°14'1413.7
2014-Sep-16 18:34N 54°59' E 000°09'1713.8
2014-Sep-16 17:18N 55°06' E 000°37'1713.7
2014-Sep-16 16:05N 55°12' E 001°03'35614.4
2014-Sep-15 15:20N 57°47' E 010°45'7 8.8
2014-Sep-15 14:30N 57°41' E 010°36'0 0.0
2014-Sep-15 11:12N 57°41' E 010°36'5 8.3
2014-Sep-15 10:33N 57°42' E 010°46'1514.9
2014-Sep-15 09:33N 57°48' E 011°12'1413.7
2014-Sep-15 08:33N 57°55' E 011°34'10 9.7
2014-Sep-15 07:33N 58°02' E 011°47'4 1.2
2014-Sep-15 04:17N 58°05' E 011°49'0 0.0
2014-Sep-15 03:23N 58°05' E 011°49'0 0.0
2014-Sep-15 02:23N 58°05' E 011°49'0 0.0
2014-Sep-15 01:14N 58°05' E 011°49'0 0.0
2014-Sep-15 00:23N 58°05' E 011°49'0 0.0
2014-Sep-14 22:29N 58°05' E 011°49'2 0.2
2014-Sep-14 11:13N 58°03' E 011°47'6 9.8
2014-Sep-14 10:33N 57°57' E 011°42'1010.4
2014-Sep-14 09:33N 57°52' E 011°26'1211.7
2014-Sep-14 08:33N 57°52' E 011°04'1312.6
2014-Sep-14 07:30N 57°52' E 010°39'1212.2
2014-Sep-14 06:33N 57°52' E 010°17'11813.2
2014-Sep-13 21:34N 56°57' E 007°02'25813.5
2014-Sep-13 02:26N 54°60' E 000°12'1213.6
2014-Sep-13 01:34N 54°55' W 000°07'1413.5
2014-Sep-13 00:33N 54°50' W 000°29'1313.4
2014-Sep-12 23:33N 54°45' W 000°51'  
Track history (hours):
 
Tides and Currents Weather Stations Pressure Air Temp Water Temp Dewpoint Dewpoint Depression Visibility Wind Speed Wind Dir Waves Ship Positions

Coral Leaf

Last reported at 2014-Sep-22 13:34 UTC. Time now 2014-Sep-22 14:18 UTC.
Position N 51°26' E 003°59'.

Length 108 m; draft 6.6 m.

Type: Ship (hazmat cat D). MMSI: 244036000.

Date/timePositionNaut miles runAvg speedWind from/ knotsBaromVisibWave heightAir tempDewpointWater temp
2014-Sep-22 13:34N 51°26' E 003°59'1110.9
2014-Sep-22 12:34N 51°24' E 003°42'1312.6
2014-Sep-22 11:33N 51°32' E 003°25'1111.4
2014-Sep-22 10:33N 51°41' E 003°15'5913.4
2014-Sep-22 06:12N 52°27' E 002°16'3014.6
2014-Sep-22 04:07N 52°55' E 001°56'814.7
2014-Sep-22 03:34N 52°60' E 001°44'1414.1
2014-Sep-22 02:33N 53°08' E 001°25'4213.7
2014-Sep-21 23:28N 53°43' E 000°45'1313.3
2014-Sep-21 22:28N 53°53' E 000°30'1213.5
2014-Sep-21 21:33N 54°02' E 000°16'1313.3
2014-Sep-21 20:33N 54°12' E 000°01'1313.5
2014-Sep-21 19:33N 54°21' W 000°15'1413.8
2014-Sep-21 18:33N 54°32' W 000°31'1913.9
2014-Sep-21 17:12N 54°39' W 001°01'5 0.2
2014-Sep-20 19:33N 54°38' W 001°09'10 9.0
2014-Sep-20 18:28N 54°41' W 000°53'1314.3
2014-Sep-20 17:34N 54°40' W 000°31'1413.7
2014-Sep-20 16:34N 54°39' W 000°07'1313.4
2014-Sep-20 15:34N 54°39' E 000°16'1313.2
2014-Sep-20 14:33N 54°38' E 000°39'14314.3
2014-Sep-20 04:31N 54°08' E 004°40'1414.4
2014-Sep-20 03:33N 54°05' E 005°03'1514.7
2014-Sep-20 02:33N 54°07' E 005°27'1615.2
2014-Sep-20 01:31N 54°10' E 005°54'1515.8
2014-Sep-20 00:32N 54°12' E 006°20'2316.1
2014-Sep-19 23:06N 54°13' E 006°60'916.1
2014-Sep-19 22:33N 54°13' E 007°15'1313.4
2014-Sep-19 21:33N 54°06' E 007°34'1514.9
2014-Sep-19 20:33N 53°53' E 007°47'1312.7
2014-Sep-19 19:33N 53°45' E 008°03'6 5.8
2014-Sep-19 18:28N 53°39' E 008°06'0 0.0
2014-Sep-19 17:31N 53°39' E 008°06'0 0.0
2014-Sep-19 16:25N 53°39' E 008°06'0 0.0
2014-Sep-19 15:31N 53°39' E 008°06'0 0.0
2014-Sep-19 14:31N 53°39' E 008°06'0 0.0
2014-Sep-19 13:16N 53°39' E 008°06'0 0.0
2014-Sep-19 12:31N 53°39' E 008°06'0 0.0
2014-Sep-19 11:31N 53°39' E 008°06'0 0.0
2014-Sep-19 10:33N 53°39' E 008°06'0 0.0
2014-Sep-19 09:30N 53°39' E 008°06'0 0.0
2014-Sep-19 08:33N 53°39' E 008°06'0 0.0
2014-Sep-19 07:33N 53°39' E 008°06'0 0.0
2014-Sep-19 06:33N 53°39' E 008°06'0 0.0
2014-Sep-19 05:33N 53°39' E 008°06'0 0.0
2014-Sep-19 04:33N 53°39' E 008°06'0 0.0
2014-Sep-19 03:33N 53°39' E 008°06'0 0.0
2014-Sep-19 02:30N 53°39' E 008°06'0 0.0
2014-Sep-19 01:33N 53°39' E 008°06'0 0.0
2014-Sep-19 00:33N 53°39' E 008°06'0 0.0
2014-Sep-18 23:33N 53°39' E 008°06'0 0.0
2014-Sep-18 22:30N 53°39' E 008°06'0 0.0
2014-Sep-18 21:32N 53°39' E 008°06'1 0.6
2014-Sep-18 20:33N 53°39' E 008°06'1010.1
2014-Sep-18 19:33N 53°48' E 007°59'1612.2
2014-Sep-18 18:12N 53°58' E 007°37'914.6
2014-Sep-18 17:33N 54°07' E 007°30'4914.7
2014-Sep-18 14:15N 54°07' E 006°06'1014.7
2014-Sep-18 13:32N 54°06' E 005°49'1414.5
2014-Sep-18 12:33N 54°04' E 005°25'1414.3
2014-Sep-18 11:33N 54°02' E 005°01'16513.4
2014-Sep-17 23:11N 54°38' E 000°24'813.6
2014-Sep-17 22:33N 54°38' E 000°10'1413.6
2014-Sep-17 21:33N 54°38' W 000°14'1413.5
2014-Sep-17 20:33N 54°40' W 000°37'1513.5
2014-Sep-17 19:26N 54°42' W 001°03'8 0.8
2014-Sep-17 09:19N 54°36' W 001°11'0 0.0
2014-Sep-17 08:31N 54°36' W 001°11'0 0.0
2014-Sep-17 07:31N 54°36' W 001°11'1 0.1
2014-Sep-16 22:30N 54°37' W 001°09'9 9.8
2014-Sep-16 21:33N 54°42' W 000°56'1514.0
2014-Sep-16 20:30N 54°49' W 000°33'1313.4
2014-Sep-16 19:33N 54°54' W 000°14'1413.7
2014-Sep-16 18:34N 54°59' E 000°09'1713.8
2014-Sep-16 17:18N 55°06' E 000°37'1713.7
2014-Sep-16 16:05N 55°12' E 001°03'35614.4
2014-Sep-15 15:20N 57°47' E 010°45'7 8.8
2014-Sep-15 14:30N 57°41' E 010°36'0 0.0
2014-Sep-15 11:12N 57°41' E 010°36'5 8.3
2014-Sep-15 10:33N 57°42' E 010°46'1514.9
2014-Sep-15 09:33N 57°48' E 011°12'1413.7
2014-Sep-15 08:33N 57°55' E 011°34'10 9.7
2014-Sep-15 07:33N 58°02' E 011°47'4 1.2
2014-Sep-15 04:17N 58°05' E 011°49'0 0.0
2014-Sep-15 03:23N 58°05' E 011°49'0 0.0
2014-Sep-15 02:23N 58°05' E 011°49'0 0.0
2014-Sep-15 01:14N 58°05' E 011°49'0 0.0
2014-Sep-15 00:23N 58°05' E 011°49'0 0.0
2014-Sep-14 22:29N 58°05' E 011°49'2 0.2
2014-Sep-14 11:13N 58°03' E 011°47'6 9.8
2014-Sep-14 10:33N 57°57' E 011°42'1010.4
2014-Sep-14 09:33N 57°52' E 011°26'1211.7
2014-Sep-14 08:33N 57°52' E 011°04'1312.6
2014-Sep-14 07:30N 57°52' E 010°39'1212.2
2014-Sep-14 06:33N 57°52' E 010°17'11813.2
2014-Sep-13 21:34N 56°57' E 007°02'25813.5
2014-Sep-13 02:26N 54°60' E 000°12'1213.6
2014-Sep-13 01:34N 54°55' W 000°07'1413.5
2014-Sep-13 00:33N 54°50' W 000°29'1313.4
2014-Sep-12 23:33N 54°45' W 000°51'  

Dump ship's entire track history